This is the latest recevied weather packets stored in our database for station/object OE-11208. If no packets are shown the sender has not sent any weather packets the latest 10 day(s).
| Time | Temp. | Humidity | Pressure | Rain* | Wind** | Luminosity | Snow |
|---|---|---|---|---|---|---|---|
| 1787917294 | 30° C | 53% | 1006.6 hPa | 0 mm | - | 773 W/m² | - |
| 1787916922 | 30° C | 48% | 1007 hPa | 0 mm | - | 773 W/m² | - |
| 1787916322 | 29.44° C | 50% | 1007.2 hPa | 0 mm | - | 773 W/m² | - |
| 1787915494 | 28.89° C | 57% | 1007.2 hPa | 0 mm | - | 760 W/m² | - |
| 1787915122 | 28.33° C | 56% | 1007.4 hPa | 0 mm | - | 746 W/m² | - |
| 1787914522 | 27.78° C | 58% | 1007.8 hPa | 0 mm | - | 753 W/m² | - |
| 1787913695 | 27.22° C | 54% | 1008.3 hPa | 0 mm | - | 746 W/m² | - |
| 1787913322 | 27.22° C | 57% | 1008.4 hPa | 0 mm | - | 740 W/m² | - |
| 1787912722 | 26.67° C | 60% | 1008.5 hPa | 0 mm | - | 726 W/m² | - |
| 1787911895 | 26.67° C | 59% | 1008.9 hPa | 0 mm | - | 720 W/m² | - |
| 1787911522 | 25.56° C | 61% | 1009.1 hPa | 0 mm | - | 706 W/m² | - |
| 1787910921 | 25.56° C | 65% | 1009.2 hPa | 0 mm | - | 693 W/m² | - |
| 1787910095 | 25° C | 64% | 1009.7 hPa | 0 mm | - | 679 W/m² | - |
| 1787909722 | 24.44° C | 66% | 1010.2 hPa | 0 mm | - | 659 W/m² | - |
| 1787909122 | 24.44° C | 65% | 1010.4 hPa | 0 mm | - | 646 W/m² | - |
| 1787908294 | 23.89° C | 65% | 1010.8 hPa | 0 mm | - | 625 W/m² | - |
| 1787907922 | 23.89° C | 64% | 1011.1 hPa | 0 mm | - | 605 W/m² | - |
| 1787907322 | 23.33° C | 67% | 1011.4 hPa | 0 mm | - | 592 W/m² | - |
| 1787906494 | 22.78° C | 70% | 1011.7 hPa | 0 mm | - | 572 W/m² | - |
| 1787905521 | 22.22° C | 70% | 1012 hPa | 0 mm | - | 538 W/m² | - |
| 1787904695 | 20.56° C | 78% | 1012.9 hPa | 0 mm | - | 309 W/m² | - |
| 1787904322 | 20.56° C | 77% | 1013.2 hPa | 0 mm | - | 370 W/m² | - |
| 1787903722 | 19.44° C | 80% | 1013.4 hPa | 0 mm | - | 242 W/m² | - |
| 1787902894 | 19.44° C | 78% | 1013.6 hPa | 0 mm | - | 316 W/m² | - |
| 1787902522 | 18.89° C | 80% | 1013.7 hPa | 0 mm | - | 289 W/m² | - |
* Rain latest hour (hover to see other rain measurements)
** Current wind speed in m/s (hover to see current wind gust speed)